sensor_id;sensor_type;location;lat;lon;timestamp;P1;durP1;ratioP1;P2;durP2;ratioP2
2055;SDS011;1033;52.560;13.374;2023-02-15T00:02:30;36.20;;;20.80;;
2055;SDS011;1033;52.560;13.374;2023-02-15T00:05:01;34.35;;;19.95;;
2055;SDS011;1033;52.560;13.374;2023-02-15T00:07:35;36.85;;;21.55;;
2055;SDS011;1033;52.560;13.374;2023-02-15T00:10:06;29.15;;;18.08;;
2055;SDS011;1033;52.560;13.374;2023-02-15T00:12:38;39.63;;;21.08;;
2055;SDS011;1033;52.560;13.374;2023-02-15T00:15:08;37.80;;;21.40;;
2055;SDS011;1033;52.560;13.374;2023-02-15T00:17:40;35.45;;;20.27;;
2055;SDS011;1033;52.560;13.374;2023-02-15T00:20:10;31.02;;;19.33;;
2055;SDS011;1033;52.560;13.374;2023-02-15T00:22:46;35.78;;;20.95;;
2055;SDS011;1033;52.560;13.374;2023-02-15T00:25:17;38.67;;;22.92;;
2055;SDS011;1033;52.560;13.374;2023-02-15T00:27:47;35.92;;;22.00;;
2055;SDS011;1033;52.560;13.374;2023-02-15T00:30:18;34.42;;;20.30;;
2055;SDS011;1033;52.560;13.374;2023-02-15T00:32:50;39.97;;;20.67;;
2055;SDS011;1033;52.560;13.374;2023-02-15T00:35:20;40.55;;;22.77;;
2055;SDS011;1033;52.560;13.374;2023-02-15T00:37:52;42.97;;;23.58;;
2055;SDS011;1033;52.560;13.374;2023-02-15T00:40:29;44.80;;;24.17;;
2055;SDS011;1033;52.560;13.374;2023-02-15T00:43:00;41.70;;;23.48;;
2055;SDS011;1033;52.560;13.374;2023-02-15T00:45:31;41.05;;;23.40;;
2055;SDS011;1033;52.560;13.374;2023-02-15T00:48:02;34.45;;;21.58;;
2055;SDS011;1033;52.560;13.374;2023-02-15T00:50:34;45.40;;;26.08;;
2055;SDS011;1033;52.560;13.374;2023-02-15T00:53:05;44.47;;;24.25;;
2055;SDS011;1033;52.560;13.374;2023-02-15T00:55:36;37.03;;;19.90;;
2055;SDS011;1033;52.560;13.374;2023-02-15T00:58:08;42.10;;;22.60;;
2055;SDS011;1033;52.560;13.374;2023-02-15T01:00:40;38.78;;;22.17;;
2055;SDS011;1033;52.560;13.374;2023-02-15T01:03:11;41.50;;;22.20;;
2055;SDS011;1033;52.560;13.374;2023-02-15T01:05:43;36.00;;;20.40;;
2055;SDS011;1033;52.560;13.374;2023-02-15T01:08:17;44.35;;;23.83;;
2055;SDS011;1033;52.560;13.374;2023-02-15T01:10:48;36.58;;;20.02;;
2055;SDS011;1033;52.560;13.374;2023-02-15T01:13:18;41.97;;;24.10;;
2055;SDS011;1033;52.560;13.374;2023-02-15T01:15:52;40.17;;;23.15;;
2055;SDS011;1033;52.560;13.374;2023-02-15T01:18:25;41.42;;;24.42;;
2055;SDS011;1033;52.560;13.374;2023-02-15T01:20:55;39.28;;;22.75;;
2055;SDS011;1033;52.560;13.374;2023-02-15T01:23:32;39.75;;;23.48;;
2055;SDS011;1033;52.560;13.374;2023-02-15T01:26:02;40.17;;;22.33;;
2055;SDS011;1033;52.560;13.374;2023-02-15T01:28:33;35.88;;;21.90;;
2055;SDS011;1033;52.560;13.374;2023-02-15T01:31:05;39.63;;;23.48;;
2055;SDS011;1033;52.560;13.374;2023-02-15T01:33:38;49.05;;;24.70;;
2055;SDS011;1033;52.560;13.374;2023-02-15T01:36:09;41.10;;;24.27;;
2055;SDS011;1033;52.560;13.374;2023-02-15T01:38:41;42.22;;;23.10;;
2055;SDS011;1033;52.560;13.374;2023-02-15T01:41:12;41.97;;;25.63;;
2055;SDS011;1033;52.560;13.374;2023-02-15T01:43:51;37.67;;;22.70;;
2055;SDS011;1033;52.560;13.374;2023-02-15T01:46:24;42.10;;;23.52;;
2055;SDS011;1033;52.560;13.374;2023-02-15T01:49:02;42.65;;;22.77;;
2055;SDS011;1033;52.560;13.374;2023-02-15T01:51:38;39.85;;;21.90;;
2055;SDS011;1033;52.560;13.374;2023-02-15T01:54:15;45.88;;;23.77;;
2055;SDS011;1033;52.560;13.374;2023-02-15T01:56:53;49.55;;;25.45;;
2055;SDS011;1033;52.560;13.374;2023-02-15T01:59:29;45.17;;;23.77;;
2055;SDS011;1033;52.560;13.374;2023-02-15T02:02:03;46.70;;;23.15;;
2055;SDS011;1033;52.560;13.374;2023-02-15T02:04:38;52.33;;;27.17;;
2055;SDS011;1033;52.560;13.374;2023-02-15T02:07:13;46.13;;;24.80;;
2055;SDS011;1033;52.560;13.374;2023-02-15T02:09:48;42.75;;;22.63;;
2055;SDS011;1033;52.560;13.374;2023-02-15T02:12:22;45.67;;;26.27;;
2055;SDS011;1033;52.560;13.374;2023-02-15T02:14:53;45.88;;;23.85;;
2055;SDS011;1033;52.560;13.374;2023-02-15T02:23:30;42.22;;;24.55;;
2055;SDS011;1033;52.560;13.374;2023-02-15T02:29:57;50.95;;;21.90;;
2055;SDS011;1033;52.560;13.374;2023-02-15T02:35:44;43.50;;;25.13;;
2055;SDS011;1033;52.560;13.374;2023-02-15T02:38:27;46.15;;;23.25;;
2055;SDS011;1033;52.560;13.374;2023-02-15T02:41:10;43.92;;;24.33;;
2055;SDS011;1033;52.560;13.374;2023-02-15T02:43:48;38.17;;;22.80;;
2055;SDS011;1033;52.560;13.374;2023-02-15T02:49:33;44.85;;;25.05;;
2055;SDS011;1033;52.560;13.374;2023-02-15T02:52:05;50.40;;;25.40;;
2055;SDS011;1033;52.560;13.374;2023-02-15T02:54:57;42.28;;;24.95;;
2055;SDS011;1033;52.560;13.374;2023-02-15T02:57:29;38.83;;;22.77;;
2055;SDS011;1033;52.560;13.374;2023-02-15T03:00:02;53.28;;;27.52;;
2055;SDS011;1033;52.560;13.374;2023-02-15T03:02:37;44.45;;;22.70;;
2055;SDS011;1033;52.560;13.374;2023-02-15T03:05:13;44.20;;;23.27;;
2055;SDS011;1033;52.560;13.374;2023-02-15T03:07:49;49.75;;;25.10;;
2055;SDS011;1033;52.560;13.374;2023-02-15T03:10:23;51.20;;;28.70;;
2055;SDS011;1033;52.560;13.374;2023-02-15T03:12:54;50.05;;;24.55;;
2055;SDS011;1033;52.560;13.374;2023-02-15T03:15:28;48.63;;;25.95;;
2055;SDS011;1033;52.560;13.374;2023-02-15T03:18:15;56.15;;;26.02;;
2055;SDS011;1033;52.560;13.374;2023-02-15T03:20:48;40.70;;;22.85;;
2055;SDS011;1033;52.560;13.374;2023-02-15T03:23:21;46.53;;;24.48;;
2055;SDS011;1033;52.560;13.374;2023-02-15T03:25:56;52.35;;;28.92;;
2055;SDS011;1033;52.560;13.374;2023-02-15T03:28:33;59.75;;;28.25;;
2055;SDS011;1033;52.560;13.374;2023-02-15T03:31:07;60.63;;;28.30;;
2055;SDS011;1033;52.560;13.374;2023-02-15T03:33:42;46.45;;;25.23;;
2055;SDS011;1033;52.560;13.374;2023-02-15T03:36:26;63.72;;;29.83;;
2055;SDS011;1033;52.560;13.374;2023-02-15T03:39:05;58.20;;;25.45;;
2055;SDS011;1033;52.560;13.374;2023-02-15T03:41:46;57.92;;;26.63;;
2055;SDS011;1033;52.560;13.374;2023-02-15T03:44:27;49.92;;;28.33;;
2055;SDS011;1033;52.560;13.374;2023-02-15T03:47:00;56.92;;;28.88;;
2055;SDS011;1033;52.560;13.374;2023-02-15T03:49:36;58.92;;;29.10;;
2055;SDS011;1033;52.560;13.374;2023-02-15T03:52:12;61.33;;;28.25;;
2055;SDS011;1033;52.560;13.374;2023-02-15T03:54:45;68.97;;;29.60;;
2055;SDS011;1033;52.560;13.374;2023-02-15T03:57:19;61.15;;;29.92;;
2055;SDS011;1033;52.560;13.374;2023-02-15T04:00:11;61.00;;;31.23;;
2055;SDS011;1033;52.560;13.374;2023-02-15T04:03:11;62.65;;;29.02;;
2055;SDS011;1033;52.560;13.374;2023-02-15T04:05:50;63.47;;;31.27;;
2055;SDS011;1033;52.560;13.374;2023-02-15T04:08:22;66.82;;;32.22;;
2055;SDS011;1033;52.560;13.374;2023-02-15T04:11:12;71.45;;;32.47;;
2055;SDS011;1033;52.560;13.374;2023-02-15T04:13:43;58.50;;;27.67;;
2055;SDS011;1033;52.560;13.374;2023-02-15T04:16:13;59.78;;;30.38;;
2055;SDS011;1033;52.560;13.374;2023-02-15T04:18:43;55.83;;;28.23;;
2055;SDS011;1033;52.560;13.374;2023-02-15T04:21:31;63.78;;;29.45;;
2055;SDS011;1033;52.560;13.374;2023-02-15T04:24:19;70.82;;;31.23;;
2055;SDS011;1033;52.560;13.374;2023-02-15T04:27:16;70.07;;;30.33;;
2055;SDS011;1033;52.560;13.374;2023-02-15T04:29:48;67.75;;;31.40;;
2055;SDS011;1033;52.560;13.374;2023-02-15T04:32:19;68.78;;;32.78;;
2055;SDS011;1033;52.560;13.374;2023-02-15T04:34:49;85.10;;;34.65;;
2055;SDS011;1033;52.560;13.374;2023-02-15T04:37:20;65.05;;;30.23;;
2055;SDS011;1033;52.560;13.374;2023-02-15T04:39:51;74.70;;;31.02;;
2055;SDS011;1033;52.560;13.374;2023-02-15T04:42:21;72.53;;;31.27;;
2055;SDS011;1033;52.560;13.374;2023-02-15T04:44:53;62.60;;;29.15;;
2055;SDS011;1033;52.560;13.374;2023-02-15T04:47:24;74.07;;;30.27;;
2055;SDS011;1033;52.560;13.374;2023-02-15T04:49:55;74.82;;;32.05;;
2055;SDS011;1033;52.560;13.374;2023-02-15T04:52:25;66.47;;;29.95;;
2055;SDS011;1033;52.560;13.374;2023-02-15T04:54:58;63.47;;;31.42;;
2055;SDS011;1033;52.560;13.374;2023-02-15T04:57:28;70.43;;;32.95;;
2055;SDS011;1033;52.560;13.374;2023-02-15T04:59:59;62.70;;;29.52;;
2055;SDS011;1033;52.560;13.374;2023-02-15T05:02:30;65.53;;;31.70;;
2055;SDS011;1033;52.560;13.374;2023-02-15T05:05:00;70.03;;;30.50;;
2055;SDS011;1033;52.560;13.374;2023-02-15T05:07:30;74.00;;;32.70;;
2055;SDS011;1033;52.560;13.374;2023-02-15T05:10:01;61.38;;;30.10;;
2055;SDS011;1033;52.560;13.374;2023-02-15T05:12:33;63.63;;;30.25;;
2055;SDS011;1033;52.560;13.374;2023-02-15T05:15:08;68.28;;;30.50;;
2055;SDS011;1033;52.560;13.374;2023-02-15T05:17:40;80.05;;;34.78;;
2055;SDS011;1033;52.560;13.374;2023-02-15T05:20:11;70.72;;;33.47;;
2055;SDS011;1033;52.560;13.374;2023-02-15T05:22:43;69.43;;;33.00;;
2055;SDS011;1033;52.560;13.374;2023-02-15T05:25:16;60.30;;;30.00;;
2055;SDS011;1033;52.560;13.374;2023-02-15T05:28:05;69.07;;;32.63;;
2055;SDS011;1033;52.560;13.374;2023-02-15T05:30:58;62.25;;;30.70;;
2055;SDS011;1033;52.560;13.374;2023-02-15T05:33:33;70.85;;;29.98;;
2055;SDS011;1033;52.560;13.374;2023-02-15T05:36:05;69.25;;;29.23;;
2055;SDS011;1033;52.560;13.374;2023-02-15T05:38:37;59.63;;;29.63;;
2055;SDS011;1033;52.560;13.374;2023-02-15T05:41:08;78.00;;;30.77;;
2055;SDS011;1033;52.560;13.374;2023-02-15T05:43:40;65.13;;;27.23;;
2055;SDS011;1033;52.560;13.374;2023-02-15T05:46:13;61.65;;;29.88;;
2055;SDS011;1033;52.560;13.374;2023-02-15T05:48:45;61.33;;;29.95;;
2055;SDS011;1033;52.560;13.374;2023-02-15T05:51:16;61.72;;;29.13;;
2055;SDS011;1033;52.560;13.374;2023-02-15T05:53:49;57.00;;;27.13;;
2055;SDS011;1033;52.560;13.374;2023-02-15T05:56:19;72.63;;;30.65;;
2055;SDS011;1033;52.560;13.374;2023-02-15T05:58:52;74.40;;;29.67;;
2055;SDS011;1033;52.560;13.374;2023-02-15T06:01:25;74.38;;;31.85;;
2055;SDS011;1033;52.560;13.374;2023-02-15T06:03:56;80.10;;;30.33;;
2055;SDS011;1033;52.560;13.374;2023-02-15T06:06:29;75.40;;;31.63;;
2055;SDS011;1033;52.560;13.374;2023-02-15T06:09:01;59.90;;;31.05;;
2055;SDS011;1033;52.560;13.374;2023-02-15T06:11:33;72.60;;;31.88;;
2055;SDS011;1033;52.560;13.374;2023-02-15T06:14:03;66.43;;;31.02;;
2055;SDS011;1033;52.560;13.374;2023-02-15T06:19:18;68.38;;;31.40;;
2055;SDS011;1033;52.560;13.374;2023-02-15T06:21:50;66.85;;;29.88;;
2055;SDS011;1033;52.560;13.374;2023-02-15T06:24:20;78.35;;;32.42;;
2055;SDS011;1033;52.560;13.374;2023-02-15T06:26:51;69.13;;;29.30;;
2055;SDS011;1033;52.560;13.374;2023-02-15T06:29:21;70.93;;;31.23;;
2055;SDS011;1033;52.560;13.374;2023-02-15T06:31:53;94.10;;;33.47;;
2055;SDS011;1033;52.560;13.374;2023-02-15T06:34:24;92.38;;;36.67;;
2055;SDS011;1033;52.560;13.374;2023-02-15T06:36:54;67.68;;;30.25;;
2055;SDS011;1033;52.560;13.374;2023-02-15T06:39:25;74.70;;;30.95;;
2055;SDS011;1033;52.560;13.374;2023-02-15T06:41:57;79.90;;;33.42;;
2055;SDS011;1033;52.560;13.374;2023-02-15T06:44:28;73.40;;;31.88;;
2055;SDS011;1033;52.560;13.374;2023-02-15T06:47:00;89.20;;;34.78;;
2055;SDS011;1033;52.560;13.374;2023-02-15T06:49:31;81.68;;;36.47;;
2055;SDS011;1033;52.560;13.374;2023-02-15T06:52:02;79.07;;;34.13;;
2055;SDS011;1033;52.560;13.374;2023-02-15T06:54:40;84.63;;;35.10;;
2055;SDS011;1033;52.560;13.374;2023-02-15T06:57:10;81.25;;;33.60;;
2055;SDS011;1033;52.560;13.374;2023-02-15T06:59:41;69.28;;;33.92;;
2055;SDS011;1033;52.560;13.374;2023-02-15T07:02:13;83.57;;;36.22;;
2055;SDS011;1033;52.560;13.374;2023-02-15T07:04:47;89.00;;;34.22;;
2055;SDS011;1033;52.560;13.374;2023-02-15T07:07:18;94.55;;;34.03;;
2055;SDS011;1033;52.560;13.374;2023-02-15T07:09:49;80.70;;;33.72;;
2055;SDS011;1033;52.560;13.374;2023-02-15T07:12:19;84.38;;;34.88;;
2055;SDS011;1033;52.560;13.374;2023-02-15T07:15:07;85.72;;;34.95;;
2055;SDS011;1033;52.560;13.374;2023-02-15T07:17:42;86.43;;;33.55;;
2055;SDS011;1033;52.560;13.374;2023-02-15T07:20:15;84.07;;;33.20;;
2055;SDS011;1033;52.560;13.374;2023-02-15T07:22:49;74.38;;;33.65;;
2055;SDS011;1033;52.560;13.374;2023-02-15T07:25:20;83.80;;;34.45;;
2055;SDS011;1033;52.560;13.374;2023-02-15T07:27:55;86.10;;;32.15;;
2055;SDS011;1033;52.560;13.374;2023-02-15T07:30:25;92.10;;;38.00;;
2055;SDS011;1033;52.560;13.374;2023-02-15T07:33:00;82.65;;;34.35;;
2055;SDS011;1033;52.560;13.374;2023-02-15T07:35:48;87.30;;;34.28;;
2055;SDS011;1033;52.560;13.374;2023-02-15T07:38:20;97.82;;;35.25;;
2055;SDS011;1033;52.560;13.374;2023-02-15T07:40:57;82.40;;;32.25;;
2055;SDS011;1033;52.560;13.374;2023-02-15T07:43:29;84.90;;;33.40;;
2055;SDS011;1033;52.560;13.374;2023-02-15T07:46:05;85.47;;;34.17;;
2055;SDS011;1033;52.560;13.374;2023-02-15T07:48:42;88.05;;;35.05;;
2055;SDS011;1033;52.560;13.374;2023-02-15T07:51:14;92.25;;;36.30;;
2055;SDS011;1033;52.560;13.374;2023-02-15T07:53:52;77.10;;;34.17;;
2055;SDS011;1033;52.560;13.374;2023-02-15T07:56:23;83.22;;;35.70;;
2055;SDS011;1033;52.560;13.374;2023-02-15T07:58:57;90.55;;;35.13;;
2055;SDS011;1033;52.560;13.374;2023-02-15T08:01:33;92.60;;;39.40;;
2055;SDS011;1033;52.560;13.374;2023-02-15T08:04:09;87.63;;;38.17;;
2055;SDS011;1033;52.560;13.374;2023-02-15T08:06:40;94.90;;;38.55;;
2055;SDS011;1033;52.560;13.374;2023-02-15T08:09:12;84.38;;;36.33;;
2055;SDS011;1033;52.560;13.374;2023-02-15T08:11:45;89.28;;;39.25;;
2055;SDS011;1033;52.560;13.374;2023-02-15T08:14:17;88.03;;;37.35;;
2055;SDS011;1033;52.560;13.374;2023-02-15T08:16:50;84.60;;;33.22;;
2055;SDS011;1033;52.560;13.374;2023-02-15T08:19:25;80.57;;;34.00;;
2055;SDS011;1033;52.560;13.374;2023-02-15T08:21:59;69.88;;;32.35;;
2055;SDS011;1033;52.560;13.374;2023-02-15T08:24:31;95.32;;;39.00;;
2055;SDS011;1033;52.560;13.374;2023-02-15T08:27:04;82.05;;;36.50;;
2055;SDS011;1033;52.560;13.374;2023-02-15T08:29:36;71.28;;;31.20;;
2055;SDS011;1033;52.560;13.374;2023-02-15T08:32:10;70.13;;;33.38;;
2055;SDS011;1033;52.560;13.374;2023-02-15T08:34:42;56.42;;;30.23;;
2055;SDS011;1033;52.560;13.374;2023-02-15T08:37:13;65.55;;;30.73;;
2055;SDS011;1033;52.560;13.374;2023-02-15T08:39:43;63.65;;;29.60;;
2055;SDS011;1033;52.560;13.374;2023-02-15T08:42:15;68.40;;;31.40;;
2055;SDS011;1033;52.560;13.374;2023-02-15T08:44:48;56.90;;;29.30;;
2055;SDS011;1033;52.560;13.374;2023-02-15T08:47:21;70.13;;;31.90;;
2055;SDS011;1033;52.560;13.374;2023-02-15T08:49:56;66.15;;;29.98;;
2055;SDS011;1033;52.560;13.374;2023-02-15T08:52:27;60.70;;;31.90;;
2055;SDS011;1033;52.560;13.374;2023-02-15T08:55:10;60.50;;;29.65;;
2055;SDS011;1033;52.560;13.374;2023-02-15T08:57:58;57.28;;;28.55;;
2055;SDS011;1033;52.560;13.374;2023-02-15T09:00:36;58.33;;;29.88;;
2055;SDS011;1033;52.560;13.374;2023-02-15T09:03:17;59.58;;;29.50;;
2055;SDS011;1033;52.560;13.374;2023-02-15T09:08:53;59.30;;;29.73;;
2055;SDS011;1033;52.560;13.374;2023-02-15T09:11:30;55.88;;;25.95;;
2055;SDS011;1033;52.560;13.374;2023-02-15T09:14:07;56.20;;;28.85;;
2055;SDS011;1033;52.560;13.374;2023-02-15T09:16:40;45.75;;;24.80;;
2055;SDS011;1033;52.560;13.374;2023-02-15T09:19:13;53.20;;;28.13;;
2055;SDS011;1033;52.560;13.374;2023-02-15T09:21:46;48.10;;;28.85;;
2055;SDS011;1033;52.560;13.374;2023-02-15T09:24:16;42.92;;;23.90;;
2055;SDS011;1033;52.560;13.374;2023-02-15T09:26:46;55.67;;;29.02;;
2055;SDS011;1033;52.560;13.374;2023-02-15T09:29:17;46.75;;;27.58;;
2055;SDS011;1033;52.560;13.374;2023-02-15T09:31:48;41.92;;;24.83;;
2055;SDS011;1033;52.560;13.374;2023-02-15T09:34:30;44.88;;;27.10;;
2055;SDS011;1033;52.560;13.374;2023-02-15T09:45:14;44.33;;;23.33;;
2055;SDS011;1033;52.560;13.374;2023-02-15T09:48:05;44.10;;;24.83;;
2055;SDS011;1033;52.560;13.374;2023-02-15T09:55:25;40.20;;;21.33;;
2055;SDS011;1033;52.560;13.374;2023-02-15T09:58:06;35.63;;;21.75;;
2055;SDS011;1033;52.560;13.374;2023-02-15T10:00:47;37.65;;;22.13;;
2055;SDS011;1033;52.560;13.374;2023-02-15T10:03:30;42.67;;;24.02;;
2055;SDS011;1033;52.560;13.374;2023-02-15T10:06:14;45.42;;;24.98;;
2055;SDS011;1033;52.560;13.374;2023-02-15T10:08:55;40.33;;;25.73;;
2055;SDS011;1033;52.560;13.374;2023-02-15T10:11:43;37.95;;;22.55;;
2055;SDS011;1033;52.560;13.374;2023-02-15T10:14:31;44.15;;;26.90;;
2055;SDS011;1033;52.560;13.374;2023-02-15T10:17:21;40.00;;;23.20;;
2055;SDS011;1033;52.560;13.374;2023-02-15T10:20:02;48.25;;;24.52;;
2055;SDS011;1033;52.560;13.374;2023-02-15T10:22:42;45.70;;;24.38;;
2055;SDS011;1033;52.560;13.374;2023-02-15T10:25:26;40.80;;;24.42;;
2055;SDS011;1033;52.560;13.374;2023-02-15T10:28:04;38.20;;;24.90;;
2055;SDS011;1033;52.560;13.374;2023-02-15T10:30:36;40.88;;;23.95;;
2055;SDS011;1033;52.560;13.374;2023-02-15T10:33:14;39.70;;;21.98;;
2055;SDS011;1033;52.560;13.374;2023-02-15T10:36:00;44.90;;;25.13;;
2055;SDS011;1033;52.560;13.374;2023-02-15T10:38:40;42.63;;;22.08;;
2055;SDS011;1033;52.560;13.374;2023-02-15T10:41:24;44.58;;;25.00;;
2055;SDS011;1033;52.560;13.374;2023-02-15T10:44:13;43.33;;;24.33;;
2055;SDS011;1033;52.560;13.374;2023-02-15T10:47:05;40.20;;;25.38;;
2055;SDS011;1033;52.560;13.374;2023-02-15T10:49:53;37.33;;;24.20;;
2055;SDS011;1033;52.560;13.374;2023-02-15T10:55:55;35.35;;;21.27;;
2055;SDS011;1033;52.560;13.374;2023-02-15T10:58:36;40.10;;;23.02;;
2055;SDS011;1033;52.560;13.374;2023-02-15T11:01:19;40.88;;;24.60;;
2055;SDS011;1033;52.560;13.374;2023-02-15T11:04:08;42.42;;;22.90;;
2055;SDS011;1033;52.560;13.374;2023-02-15T11:06:59;45.83;;;24.92;;
2055;SDS011;1033;52.560;13.374;2023-02-15T11:09:33;36.47;;;22.30;;
2055;SDS011;1033;52.560;13.374;2023-02-15T11:12:07;42.97;;;25.45;;
2055;SDS011;1033;52.560;13.374;2023-02-15T11:14:43;46.33;;;23.27;;
2055;SDS011;1033;52.560;13.374;2023-02-15T11:17:19;34.20;;;22.52;;
2055;SDS011;1033;52.560;13.374;2023-02-15T11:19:55;39.38;;;24.88;;
2055;SDS011;1033;52.560;13.374;2023-02-15T11:22:31;35.10;;;24.05;;
2055;SDS011;1033;52.560;13.374;2023-02-15T11:25:01;35.20;;;23.17;;
2055;SDS011;1033;52.560;13.374;2023-02-15T11:27:42;34.03;;;20.08;;
2055;SDS011;1033;52.560;13.374;2023-02-15T11:30:14;37.28;;;20.50;;
2055;SDS011;1033;52.560;13.374;2023-02-15T11:32:48;33.33;;;22.20;;
2055;SDS011;1033;52.560;13.374;2023-02-15T11:35:26;46.35;;;23.05;;
2055;SDS011;1033;52.560;13.374;2023-02-15T11:38:01;37.97;;;24.17;;
2055;SDS011;1033;52.560;13.374;2023-02-15T11:40:35;33.28;;;23.88;;
2055;SDS011;1033;52.560;13.374;2023-02-15T11:43:11;34.85;;;22.42;;
2055;SDS011;1033;52.560;13.374;2023-02-15T11:45:45;42.85;;;23.23;;
2055;SDS011;1033;52.560;13.374;2023-02-15T11:48:16;36.35;;;23.85;;
2055;SDS011;1033;52.560;13.374;2023-02-15T11:50:45;40.47;;;25.27;;
2055;SDS011;1033;52.560;13.374;2023-02-15T11:53:15;37.83;;;21.52;;
2055;SDS011;1033;52.560;13.374;2023-02-15T11:55:48;32.50;;;20.95;;
2055;SDS011;1033;52.560;13.374;2023-02-15T11:58:23;38.97;;;24.42;;
2055;SDS011;1033;52.560;13.374;2023-02-15T12:00:59;38.85;;;25.20;;
2055;SDS011;1033;52.560;13.374;2023-02-15T12:03:42;33.85;;;21.67;;
2055;SDS011;1033;52.560;13.374;2023-02-15T12:06:23;38.22;;;22.30;;
2055;SDS011;1033;52.560;13.374;2023-02-15T12:08:57;37.70;;;21.35;;
2055;SDS011;1033;52.560;13.374;2023-02-15T12:11:34;39.67;;;22.92;;
2055;SDS011;1033;52.560;13.374;2023-02-15T12:14:05;40.08;;;23.55;;
2055;SDS011;1033;52.560;13.374;2023-02-15T12:16:40;40.40;;;24.05;;
2055;SDS011;1033;52.560;13.374;2023-02-15T12:19:18;37.00;;;22.70;;
2055;SDS011;1033;52.560;13.374;2023-02-15T12:21:56;44.55;;;23.77;;
2055;SDS011;1033;52.560;13.374;2023-02-15T12:24:27;38.35;;;22.33;;
2055;SDS011;1033;52.560;13.374;2023-02-15T12:26:59;37.53;;;22.95;;
2055;SDS011;1033;52.560;13.374;2023-02-15T12:29:34;42.60;;;23.67;;
2055;SDS011;1033;52.560;13.374;2023-02-15T12:32:09;32.47;;;21.63;;
2055;SDS011;1033;52.560;13.374;2023-02-15T12:34:47;33.42;;;20.60;;
2055;SDS011;1033;52.560;13.374;2023-02-15T12:37:19;29.00;;;20.13;;
2055;SDS011;1033;52.560;13.374;2023-02-15T12:39:52;34.67;;;22.58;;
2055;SDS011;1033;52.560;13.374;2023-02-15T12:42:24;38.40;;;22.85;;
2055;SDS011;1033;52.560;13.374;2023-02-15T12:44:56;35.05;;;23.30;;
2055;SDS011;1033;52.560;13.374;2023-02-15T12:47:28;38.13;;;23.85;;
2055;SDS011;1033;52.560;13.374;2023-02-15T12:50:11;34.88;;;21.42;;
2055;SDS011;1033;52.560;13.374;2023-02-15T12:52:46;32.05;;;21.38;;
2055;SDS011;1033;52.560;13.374;2023-02-15T12:55:18;33.80;;;21.10;;
2055;SDS011;1033;52.560;13.374;2023-02-15T12:58:04;30.20;;;20.70;;
2055;SDS011;1033;52.560;13.374;2023-02-15T13:00:34;33.77;;;21.67;;
2055;SDS011;1033;52.560;13.374;2023-02-15T13:03:04;31.23;;;21.73;;
2055;SDS011;1033;52.560;13.374;2023-02-15T13:05:45;30.77;;;21.23;;
2055;SDS011;1033;52.560;13.374;2023-02-15T13:08:18;31.97;;;22.47;;
2055;SDS011;1033;52.560;13.374;2023-02-15T13:10:53;33.53;;;21.80;;
2055;SDS011;1033;52.560;13.374;2023-02-15T13:13:25;30.07;;;20.60;;
2055;SDS011;1033;52.560;13.374;2023-02-15T13:15:58;36.43;;;18.90;;
2055;SDS011;1033;52.560;13.374;2023-02-15T13:18:30;32.30;;;20.23;;
2055;SDS011;1033;52.560;13.374;2023-02-15T13:21:06;30.27;;;19.57;;
2055;SDS011;1033;52.560;13.374;2023-02-15T13:23:40;29.73;;;18.63;;
2055;SDS011;1033;52.560;13.374;2023-02-15T13:26:15;32.07;;;19.30;;
2055;SDS011;1033;52.560;13.374;2023-02-15T13:28:48;32.60;;;20.27;;
2055;SDS011;1033;52.560;13.374;2023-02-15T13:31:22;26.17;;;17.90;;
2055;SDS011;1033;52.560;13.374;2023-02-15T13:33:55;33.07;;;19.73;;
2055;SDS011;1033;52.560;13.374;2023-02-15T13:36:30;32.23;;;22.30;;
2055;SDS011;1033;52.560;13.374;2023-02-15T13:39:10;28.87;;;20.73;;
2055;SDS011;1033;52.560;13.374;2023-02-15T13:41:51;28.10;;;17.97;;
2055;SDS011;1033;52.560;13.374;2023-02-15T13:44:29;29.13;;;20.10;;
2055;SDS011;1033;52.560;13.374;2023-02-15T13:47:21;28.40;;;20.10;;
2055;SDS011;1033;52.560;13.374;2023-02-15T13:50:00;27.50;;;19.93;;
2055;SDS011;1033;52.560;13.374;2023-02-15T13:52:47;37.93;;;20.37;;
2055;SDS011;1033;52.560;13.374;2023-02-15T13:55:33;26.50;;;19.27;;
2055;SDS011;1033;52.560;13.374;2023-02-15T13:58:17;32.30;;;21.63;;
2055;SDS011;1033;52.560;13.374;2023-02-15T14:01:08;30.43;;;21.53;;
2055;SDS011;1033;52.560;13.374;2023-02-15T14:03:54;33.33;;;19.67;;
2055;SDS011;1033;52.560;13.374;2023-02-15T14:06:42;37.67;;;21.37;;
2055;SDS011;1033;52.560;13.374;2023-02-15T14:09:32;30.60;;;18.83;;
2055;SDS011;1033;52.560;13.374;2023-02-15T14:12:21;24.40;;;16.57;;
2055;SDS011;1033;52.560;13.374;2023-02-15T14:15:04;33.43;;;17.43;;
2055;SDS011;1033;52.560;13.374;2023-02-15T14:17:48;24.47;;;16.40;;
2055;SDS011;1033;52.560;13.374;2023-02-15T14:20:27;25.20;;;18.10;;
2055;SDS011;1033;52.560;13.374;2023-02-15T14:23:11;24.83;;;16.90;;
2055;SDS011;1033;52.560;13.374;2023-02-15T14:25:58;28.57;;;16.83;;
2055;SDS011;1033;52.560;13.374;2023-02-15T14:28:33;23.77;;;17.87;;
2055;SDS011;1033;52.560;13.374;2023-02-15T14:31:11;26.20;;;18.00;;
2055;SDS011;1033;52.560;13.374;2023-02-15T14:33:46;37.83;;;20.47;;
2055;SDS011;1033;52.560;13.374;2023-02-15T14:36:22;30.33;;;19.60;;
2055;SDS011;1033;52.560;13.374;2023-02-15T14:38:55;36.10;;;20.50;;
2055;SDS011;1033;52.560;13.374;2023-02-15T14:41:57;31.17;;;18.90;;
2055;SDS011;1033;52.560;13.374;2023-02-15T14:44:29;27.03;;;18.83;;
2055;SDS011;1033;52.560;13.374;2023-02-15T14:47:04;26.37;;;17.13;;
2055;SDS011;1033;52.560;13.374;2023-02-15T14:49:38;28.90;;;20.00;;
2055;SDS011;1033;52.560;13.374;2023-02-15T14:52:08;25.43;;;17.70;;
2055;SDS011;1033;52.560;13.374;2023-02-15T14:57:29;25.63;;;17.60;;
2055;SDS011;1033;52.560;13.374;2023-02-15T15:02:58;27.57;;;18.20;;
2055;SDS011;1033;52.560;13.374;2023-02-15T15:05:31;24.67;;;16.50;;
2055;SDS011;1033;52.560;13.374;2023-02-15T15:08:03;25.97;;;17.80;;
2055;SDS011;1033;52.560;13.374;2023-02-15T15:10:37;27.80;;;19.37;;
2055;SDS011;1033;52.560;13.374;2023-02-15T15:19:11;29.17;;;19.57;;
2055;SDS011;1033;52.560;13.374;2023-02-15T15:22:18;28.63;;;19.90;;
2055;SDS011;1033;52.560;13.374;2023-02-15T15:24:49;30.43;;;17.73;;
2055;SDS011;1033;52.560;13.374;2023-02-15T15:46:50;29.67;;;18.13;;
2055;SDS011;1033;52.560;13.374;2023-02-15T15:49:38;29.98;;;16.83;;
2055;SDS011;1033;52.560;13.374;2023-02-15T15:52:11;28.10;;;18.10;;
2055;SDS011;1033;52.560;13.374;2023-02-15T15:54:43;24.90;;;16.80;;
2055;SDS011;1033;52.560;13.374;2023-02-15T15:57:15;24.70;;;17.83;;
2055;SDS011;1033;52.560;13.374;2023-02-15T15:59:53;27.17;;;18.02;;
2055;SDS011;1033;52.560;13.374;2023-02-15T16:02:25;31.35;;;18.95;;
2055;SDS011;1033;52.560;13.374;2023-02-15T16:04:57;32.40;;;18.75;;
2055;SDS011;1033;52.560;13.374;2023-02-15T16:07:35;31.67;;;19.70;;
2055;SDS011;1033;52.560;13.374;2023-02-15T16:10:19;35.95;;;22.63;;
2055;SDS011;1033;52.560;13.374;2023-02-15T16:12:50;36.38;;;20.90;;
2055;SDS011;1033;52.560;13.374;2023-02-15T16:15:23;27.38;;;19.85;;
2055;SDS011;1033;52.560;13.374;2023-02-15T16:17:53;27.80;;;19.60;;
2055;SDS011;1033;52.560;13.374;2023-02-15T16:20:25;33.78;;;22.83;;
2055;SDS011;1033;52.560;13.374;2023-02-15T16:23:01;36.13;;;21.55;;
2055;SDS011;1033;52.560;13.374;2023-02-15T16:25:51;36.00;;;20.15;;
2055;SDS011;1033;52.560;13.374;2023-02-15T16:28:29;32.75;;;20.00;;
2055;SDS011;1033;52.560;13.374;2023-02-15T16:31:05;30.73;;;20.02;;
2055;SDS011;1033;52.560;13.374;2023-02-15T16:33:39;34.10;;;22.95;;